sensor_id;sensor_type;location;lat;lon;timestamp;pressure;altitude;pressure_sealevel;temperature;humidity
45939;BME280;31650;48.818;9.116;2023-03-12T00:06:34;97636.91;;;-3.76;100.00
45939;BME280;31650;48.818;9.116;2023-03-12T00:21:34;97646.09;;;-3.90;100.00
45939;BME280;31650;48.818;9.116;2023-03-12T00:36:35;97637.41;;;-4.02;100.00
45939;BME280;31650;48.818;9.116;2023-03-12T00:51:35;97626.13;;;-4.04;100.00
45939;BME280;31650;48.818;9.116;2023-03-12T01:06:35;97628.22;;;-3.78;100.00
45939;BME280;31650;48.818;9.116;2023-03-12T01:21:35;97632.31;;;-3.55;100.00
45939;BME280;31650;48.818;9.116;2023-03-12T01:36:36;97624.31;;;-3.26;100.00
45939;BME280;31650;48.818;9.116;2023-03-12T01:51:38;97622.41;;;-2.86;100.00
45939;BME280;31650;48.818;9.116;2023-03-12T02:21:59;97609.53;;;-2.53;100.00
45939;BME280;31650;48.818;9.116;2023-03-12T02:36:59;97605.09;;;-2.63;100.00
45939;BME280;31650;48.818;9.116;2023-03-12T02:51:59;97597.63;;;-2.49;100.00
45939;BME280;31650;48.818;9.116;2023-03-12T03:07:00;97589.22;;;-2.45;100.00
45939;BME280;31650;48.818;9.116;2023-03-12T03:22:00;97567.22;;;-2.01;100.00
45939;BME280;31650;48.818;9.116;2023-03-12T03:37:00;97572.25;;;-1.62;100.00
45939;BME280;31650;48.818;9.116;2023-03-12T03:52:01;97565.19;;;-1.27;100.00
45939;BME280;31650;48.818;9.116;2023-03-12T04:07:01;97544.72;;;-1.01;100.00
45939;BME280;31650;48.818;9.116;2023-03-12T04:22:01;97550.91;;;-0.92;100.00
45939;BME280;31650;48.818;9.116;2023-03-12T04:37:02;97561.22;;;-0.71;100.00
45939;BME280;31650;48.818;9.116;2023-03-12T04:52:02;97549.28;;;-0.51;100.00
45939;BME280;31650;48.818;9.116;2023-03-12T05:07:02;97546.66;;;-0.34;100.00
45939;BME280;31650;48.818;9.116;2023-03-12T05:22:02;97533.84;;;-0.31;100.00
45939;BME280;31650;48.818;9.116;2023-03-12T05:37:02;97546.53;;;-0.25;100.00
45939;BME280;31650;48.818;9.116;2023-03-12T05:52:03;97559.72;;;-0.23;100.00
45939;BME280;31650;48.818;9.116;2023-03-12T06:07:04;97566.47;;;-0.03;100.00
45939;BME280;31650;48.818;9.116;2023-03-12T06:22:05;97558.44;;;-0.11;100.00
45939;BME280;31650;48.818;9.116;2023-03-12T06:37:05;97540.09;;;0.19;100.00
45939;BME280;31650;48.818;9.116;2023-03-12T06:52:05;97535.28;;;0.72;100.00
45939;BME280;31650;48.818;9.116;2023-03-12T07:07:07;97553.31;;;0.94;100.00
45939;BME280;31650;48.818;9.116;2023-03-12T07:22:08;97552.72;;;1.32;100.00
45939;BME280;31650;48.818;9.116;2023-03-12T07:37:09;97566.00;;;1.64;100.00
45939;BME280;31650;48.818;9.116;2023-03-12T07:52:09;97549.03;;;2.34;100.00
45939;BME280;31650;48.818;9.116;2023-03-12T08:07:10;97545.41;;;2.50;100.00
45939;BME280;31650;48.818;9.116;2023-03-12T08:22:11;97555.63;;;2.55;100.00
45939;BME280;31650;48.818;9.116;2023-03-12T08:37:11;97576.75;;;2.50;100.00
45939;BME280;31650;48.818;9.116;2023-03-12T08:52:12;97566.19;;;3.09;100.00
45939;BME280;31650;48.818;9.116;2023-03-12T09:07:12;97552.56;;;4.00;100.00
45939;BME280;31650;48.818;9.116;2023-03-12T09:22:13;97557.75;;;4.59;100.00
45939;BME280;31650;48.818;9.116;2023-03-12T09:37:13;97555.03;;;5.65;100.00
45939;BME280;31650;48.818;9.116;2023-03-12T10:07:37;97561.88;;;7.31;100.00
45939;BME280;31650;48.818;9.116;2023-03-12T10:38:03;97556.56;;;8.79;100.00
45939;BME280;31650;48.818;9.116;2023-03-12T10:53:23;97604.16;;;8.10;100.00
45939;BME280;31650;48.818;9.116;2023-03-12T11:23:30;97615.38;;;9.60;100.00
45939;BME280;31650;48.818;9.116;2023-03-12T11:38:32;97589.56;;;10.50;100.00
45939;BME280;31650;48.818;9.116;2023-03-12T12:39:00;97551.25;;;11.36;100.00
45939;BME280;31650;48.818;9.116;2023-03-12T13:09:12;97565.09;;;10.80;100.00
45939;BME280;31650;48.818;9.116;2023-03-12T13:54:15;97530.81;;;11.45;86.26
45939;BME280;31650;48.818;9.116;2023-03-12T14:09:39;97548.38;;;11.07;87.73
45939;BME280;31650;48.818;9.116;2023-03-12T14:24:40;97568.13;;;10.23;100.00
45939;BME280;31650;48.818;9.116;2023-03-12T14:39:45;97568.81;;;10.37;100.00
45939;BME280;31650;48.818;9.116;2023-03-12T14:54:52;97556.50;;;10.95;100.00
45939;BME280;31650;48.818;9.116;2023-03-12T15:09:53;97547.91;;;11.81;85.68
45939;BME280;31650;48.818;9.116;2023-03-12T15:24:53;97532.34;;;12.28;74.02
45939;BME280;31650;48.818;9.116;2023-03-12T15:39:54;97544.25;;;11.63;76.54
45939;BME280;31650;48.818;9.116;2023-03-12T15:55:37;97543.75;;;11.07;76.53
45939;BME280;31650;48.818;9.116;2023-03-12T16:10:19;97541.72;;;10.91;78.04
45939;BME280;31650;48.818;9.116;2023-03-12T16:25:19;97538.91;;;10.68;77.91
45939;BME280;31650;48.818;9.116;2023-03-12T16:40:19;97541.47;;;10.51;77.40
45939;BME280;31650;48.818;9.116;2023-03-12T16:55:21;97541.78;;;10.42;77.04
45939;BME280;31650;48.818;9.116;2023-03-12T17:10:22;97543.19;;;9.96;77.43
45939;BME280;31650;48.818;9.116;2023-03-12T17:25:27;97557.97;;;9.38;80.86
45939;BME280;31650;48.818;9.116;2023-03-12T17:40:28;97577.97;;;8.56;87.89
45939;BME280;31650;48.818;9.116;2023-03-12T17:55:28;97588.41;;;8.52;90.17
45939;BME280;31650;48.818;9.116;2023-03-12T18:10:28;97597.00;;;8.29;91.70
45939;BME280;31650;48.818;9.116;2023-03-12T18:25:28;97590.66;;;8.62;87.59
45939;BME280;31650;48.818;9.116;2023-03-12T18:40:29;97602.91;;;8.71;87.26
45939;BME280;31650;48.818;9.116;2023-03-12T18:55:31;97606.81;;;8.75;86.00
45939;BME280;31650;48.818;9.116;2023-03-12T19:10:32;97605.84;;;8.04;89.54
45939;BME280;31650;48.818;9.116;2023-03-12T19:25:32;97629.88;;;7.54;96.33
45939;BME280;31650;48.818;9.116;2023-03-12T19:40:32;97623.88;;;7.12;100.00
45939;BME280;31650;48.818;9.116;2023-03-12T19:55:33;97632.81;;;7.46;100.00
45939;BME280;31650;48.818;9.116;2023-03-12T20:10:33;97622.78;;;7.86;95.63
45939;BME280;31650;48.818;9.116;2023-03-12T20:25:37;97627.38;;;7.59;96.77
45939;BME280;31650;48.818;9.116;2023-03-12T20:40:37;97623.03;;;7.52;97.37
45939;BME280;31650;48.818;9.116;2023-03-12T20:55:38;97638.81;;;7.01;100.00
45939;BME280;31650;48.818;9.116;2023-03-12T21:10:38;97636.31;;;6.93;100.00
45939;BME280;31650;48.818;9.116;2023-03-12T21:25:39;97624.28;;;7.42;100.00
45939;BME280;31650;48.818;9.116;2023-03-12T21:40:40;97614.72;;;7.27;100.00
45939;BME280;31650;48.818;9.116;2023-03-12T21:55:40;97606.63;;;7.27;100.00
45939;BME280;31650;48.818;9.116;2023-03-12T22:10:41;97582.91;;;7.22;100.00
45939;BME280;31650;48.818;9.116;2023-03-12T22:25:41;97578.09;;;7.37;100.00
45939;BME280;31650;48.818;9.116;2023-03-12T22:40:41;97543.75;;;6.58;100.00
45939;BME280;31650;48.818;9.116;2023-03-12T22:55:42;97528.63;;;5.95;100.00
45939;BME280;31650;48.818;9.116;2023-03-12T23:10:48;97523.28;;;5.67;100.00
45939;BME280;31650;48.818;9.116;2023-03-12T23:25:52;97525.88;;;5.12;100.00
45939;BME280;31650;48.818;9.116;2023-03-12T23:40:57;97532.72;;;4.87;100.00
45939;BME280;31650;48.818;9.116;2023-03-12T23:55:58;97529.34;;;5.06;100.00
